Time;durP1;ratioP1;P1;durP2;ratioP2;P2;SDS_P1;SDS_P2;PMS_P1;PMS_P2;Temp;Humidity;BMP_temperature;BMP_pressure;BME280_temperature;BME280_humidity;BME280_pressure;Samples;Min_cycle;Max_cycle;Signal;HPM_P1;HPM_P2
2022/07/15 00:12:34;;;;;;;3.03;1.70;;;;;;;19.90;67.81;100207.09;31307430;28;20045;-71
2022/07/15 00:27:53;;;;;;;3.65;1.83;;;;;;;19.80;72.04;100200.22;31311407;28;20059;-72
2022/07/15 00:42:55;;;;;;;3.55;1.67;;;;;;;19.72;70.86;100197.09;31308107;28;20045;-69
2022/07/15 00:58:02;;;;;;;2.20;1.60;;;;;;;19.57;74.14;100195.63;31318417;28;20053;-71
2022/07/15 01:13:04;;;;;;;2.80;2.10;;;;;;;19.53;74.95;100190.31;31334837;28;20040;-71
2022/07/15 01:28:08;;;;;;;2.28;1.70;;;;;;;19.54;76.31;100180.06;31339950;28;20053;-71
2022/07/15 01:43:10;;;;;;;;;;;;;;;19.43;79.91;100186.88;31328860;28;20044;-71
2022/07/15 01:58:12;;;;;;;2.83;2.08;;;;;;;19.41;78.37;100175.56;31308534;28;19921;-71
2022/07/15 02:13:15;;;;;;;2.95;1.80;;;;;;;19.35;79.65;100179.50;31297634;28;20135;-71
2022/07/15 02:28:17;;;;;;;4.07;2.77;;;;;;;19.49;79.97;100177.94;31314283;28;20049;-71
2022/07/15 02:43:19;;;;;;;4.93;2.05;;;;;;;19.56;80.63;100178.34;31301441;28;20037;-71
2022/07/15 02:58:21;;;;;;;4.10;2.42;;;;;;;19.75;80.17;100187.88;31325510;28;20069;-71
2022/07/15 03:13:25;;;;;;;3.15;2.20;;;;;;;19.95;78.92;100192.66;31313007;28;20083;-71
2022/07/15 03:28:27;;;;;;;3.05;2.20;;;;;;;20.30;77.72;100200.88;31280481;28;20083;-71
2022/07/15 03:43:30;;;;;;;6.03;2.90;;;;;;;20.64;76.34;100207.56;31302877;28;20057;-71
2022/07/15 03:58:32;;;;;;;4.63;2.50;;;;;;;21.17;74.68;100208.34;31283136;28;20061;-72
2022/07/15 04:13:34;;;;;;;3.45;2.22;;;;;;;21.66;72.66;100210.75;31284497;28;20053;-71
2022/07/15 04:28:36;;;;;;;3.03;2.20;;;;;;;22.19;71.21;100200.28;31296500;28;20057;-73
2022/07/15 04:43:38;;;;;;;4.03;2.63;;;;;;;22.66;69.71;100193.91;31317478;28;20498;-72
2022/07/15 04:58:40;;;;;;;7.93;2.57;;;;;;;23.33;67.37;100204.34;31344436;28;20179;-72
2022/07/15 05:13:42;;;;;;;4.50;3.30;;;;;;;23.98;66.05;100218.63;31305338;28;20060;-71
2022/07/15 05:28:44;;;;;;;6.63;3.20;;;;;;;24.76;62.97;100218.31;31330589;28;20049;-71
2022/07/15 05:43:46;;;;;;;4.70;3.03;;;;;;;25.33;60.11;100218.69;31318604;28;20053;-72
2022/07/15 05:58:48;;;;;;;7.13;2.90;;;;;;;25.91;57.47;100216.41;31331852;28;20067;-71
2022/07/15 06:13:50;;;;;;;3.40;2.70;;;;;;;26.41;55.41;100229.78;31323580;28;20873;-73
2022/07/15 06:28:52;;;;;;;5.35;2.53;;;;;;;27.04;51.34;100222.09;31291474;28;20060;-69
2022/07/15 06:43:54;;;;;;;4.72;2.35;;;;;;;27.62;47.82;100224.97;31311039;28;20057;-70
2022/07/15 06:58:56;;;;;;;3.65;2.35;;;;;;;27.62;41.22;100218.63;31283611;28;20498;-69
2022/07/15 07:13:59;;;;;;;3.92;1.65;;;;;;;28.52;38.57;100224.00;31260656;28;20041;-70
2022/07/15 07:29:01;;;;;;;2.63;1.83;;;;;;;28.87;36.23;100216.38;31295439;28;20060;-72
2022/07/15 07:44:55;;;;;;;;;;;;;;;29.46;34.40;100212.69;31263950;28;20046;-76
2022/07/15 07:59:57;;;;;;;2.50;2.08;;;;;;;29.86;35.95;100204.00;31314614;28;19925;-69
2022/07/15 08:14:59;;;;;;;1.95;1.48;;;;;;;30.40;34.61;100189.00;31275134;28;20459;-68
2022/07/15 08:30:02;;;;;;;2.20;1.50;;;;;;;30.91;33.42;100174.19;31290698;28;20067;-70
2022/07/15 08:45:06;;;;;;;6.45;2.00;;;;;;;30.32;35.73;100167.84;31311203;28;20049;-69
2022/07/15 09:00:10;;;;;;;6.50;2.03;;;;;;;30.20;35.68;100159.06;31325025;28;20577;-69
2022/07/15 09:15:39;;;;;;;3.15;1.77;;;;;;;28.72;37.89;100142.28;31358880;28;20572;-70
2022/07/15 09:46:06;;;;;;;2.53;2.00;;;;;;;31.00;33.17;100128.03;31301962;28;20048;-70
2022/07/15 10:01:10;;;;;;;2.03;1.58;;;;;;;32.33;31.23;100118.97;31321987;28;20058;-70
2022/07/15 10:16:31;;;;;;;4.05;2.10;;;;;;;33.39;29.45;100106.19;31296915;28;20118;-70
2022/07/15 10:31:34;;;;;;;2.38;1.58;;;;;;;33.54;29.10;100094.78;31309567;28;20143;-70
2022/07/15 10:46:37;;;;;;;3.17;1.60;;;;;;;34.11;26.67;100079.66;31285099;28;20037;-69
2022/07/15 11:01:41;;;;;;;4.13;1.67;;;;;;;33.89;28.02;100073.00;31332690;28;20065;-70
2022/07/15 11:16:44;;;;;;;2.85;1.70;;;;;;;33.54;27.78;100072.28;31304461;28;20118;-70
2022/07/15 11:31:51;;;;;;;2.00;1.58;;;;;;;31.65;28.66;100063.84;31305287;28;20053;-70
2022/07/15 11:46:54;;;;;;;2.75;1.42;;;;;;;30.74;29.91;100064.69;31311505;28;20179;-69
2022/07/15 12:02:05;;;;;;;2.58;1.90;;;;;;;30.29;30.69;100054.16;31307442;28;20057;-69
2022/07/15 12:17:07;;;;;;;;;;;;;;;29.75;31.16;100036.47;31285553;28;20047;-73
2022/07/15 12:32:12;;;;;;;4.93;1.88;;;;;;;29.92;33.50;100028.31;31284205;28;19920;-69
2022/07/15 12:47:16;;;;;;;2.28;1.90;;;;;;;29.74;32.29;100018.19;31293490;28;20053;-70
2022/07/15 13:02:18;;;;;;;3.97;1.88;;;;;;;29.30;32.73;99992.97;31289258;28;20050;-72
2022/07/15 13:17:21;;;;;;;2.90;1.58;;;;;;;29.47;32.74;100001.66;31300916;28;20068;-68
2022/07/15 13:32:23;;;;;;;4.32;1.73;;;;;;;29.48;32.31;99994.78;31309197;28;20155;-68
2022/07/15 13:47:33;;;;;;;2.40;1.77;;;;;;;29.44;32.84;99980.41;31278113;28;20056;-75
2022/07/15 14:02:35;;;;;;;2.78;1.80;;;;;;;29.27;32.81;99977.31;31304071;28;20057;-77
2022/07/15 14:17:38;;;;;;;2.88;1.80;;;;;;;29.27;32.79;99966.13;31301074;28;20053;-74
2022/07/15 14:32:41;;;;;;;2.78;2.05;;;;;;;29.32;32.64;99965.22;31306759;28;20052;-75
2022/07/15 14:47:43;;;;;;;4.13;1.60;;;;;;;29.26;32.73;99959.06;31276513;28;20060;-82
2022/07/15 15:02:46;;;;;;;2.85;2.05;;;;;;;29.18;32.99;99955.47;31279677;28;20065;-76
2022/07/15 15:17:51;;;;;;;3.33;2.22;;;;;;;29.11;33.04;99954.13;31276580;28;20055;-70
2022/07/15 15:32:53;;;;;;;2.85;1.98;;;;;;;29.03;33.13;99949.81;31289875;28;20053;-70
2022/07/15 15:47:55;;;;;;;4.75;2.50;;;;;;;28.96;33.67;99944.91;31289499;28;20048;-69
2022/07/15 16:02:57;;;;;;;4.45;2.80;;;;;;;28.85;33.52;99951.53;31271369;28;20050;-70
2022/07/15 16:17:59;;;;;;;5.43;3.22;;;;;;;28.67;33.55;99960.88;31275669;28;20052;-74
2022/07/15 16:33:01;;;;;;;6.22;3.40;;;;;;;28.49;33.95;99957.03;31270978;28;20049;-68
2022/07/15 16:48:03;;;;;;;5.03;2.85;;;;;;;28.26;33.46;99956.09;31278595;28;20569;-70
2022/07/15 17:03:06;;;;;;;3.70;2.50;;;;;;;27.98;31.81;99959.53;31289951;28;20057;-73
2022/07/15 17:18:09;;;;;;;4.95;2.90;;;;;;;27.72;31.45;99957.56;31307424;28;20180;-71
2022/07/15 17:33:10;;;;;;;4.40;2.50;;;;;;;27.51;31.28;99963.81;31295636;28;20046;-69
2022/07/15 17:48:26;;;;;;;3.58;2.25;;;;;;;27.33;30.95;99967.50;31341526;28;20371;-69
2022/07/15 18:03:28;;;;;;;3.00;2.40;;;;;;;27.25;30.67;99975.00;31322110;28;20518;-68
2022/07/15 18:18:30;;;;;;;3.45;2.38;;;;;;;27.21;30.23;99988.50;31288990;28;20060;-69
2022/07/15 18:33:32;;;;;;;4.15;2.38;;;;;;;27.12;29.34;99988.97;31340117;28;20049;-69
2022/07/15 18:48:35;;;;;;;4.60;2.70;;;;;;;27.12;29.57;100005.69;31331788;28;20199;-68
2022/07/15 19:03:37;;;;;;;3.13;2.25;;;;;;;26.97;29.58;100005.44;31243930;28;1346966;-69
2022/07/15 19:18:39;;;;;;;2.75;1.75;;;;;;;25.87;38.44;100034.47;31317791;28;20061;-69
2022/07/15 19:33:41;;;;;;;3.38;2.13;;;;;;;24.75;46.47;100022.50;31307498;28;20057;-68
2022/07/15 19:48:44;;;;;;;3.53;2.05;;;;;;;24.21;50.98;100018.88;31276508;28;20061;-71
2022/07/15 20:03:46;;;;;;;6.30;2.00;;;;;;;23.91;53.66;100025.09;31285244;28;20037;-70
2022/07/15 20:18:48;;;;;;;;;;;;;;;23.77;57.27;100031.72;31302827;28;20497;-70
2022/07/15 20:33:51;;;;;;;5.68;1.70;;;;;;;23.67;56.14;100033.25;31290091;28;19939;-69
2022/07/15 20:48:53;;;;;;;2.13;1.90;;;;;;;23.61;56.79;100041.63;31308452;28;20057;-69
2022/07/15 21:03:55;;;;;;;5.00;2.23;;;;;;;23.55;57.99;100042.91;31320500;28;20056;-69
2022/07/15 21:18:58;;;;;;;;;;;;;;;23.37;61.71;100047.72;31337537;28;20053;-69
2022/07/15 21:34:05;;;;;;;10.38;2.40;;;;;;;23.02;61.30;100034.44;31294816;28;20471;-68
2022/07/15 21:49:07;;;;;;;9.27;1.53;;;;;;;23.00;61.41;100041.72;31288802;28;20060;-69
2022/07/15 22:04:09;;;;;;;10.17;1.70;;;;;;;22.86;61.59;100034.47;31294828;28;20045;-69
2022/07/15 22:19:12;;;;;;;3.60;1.67;;;;;;;22.67;61.45;100039.72;31291303;28;20382;-68
2022/07/15 22:34:14;;;;;;;1.77;1.40;;;;;;;22.63;62.10;100050.28;31289879;28;20067;-68
2022/07/15 22:49:16;;;;;;;11.43;2.23;;;;;;;22.72;62.16;100058.31;31275105;28;20056;-68
2022/07/15 23:04:18;;;;;;;4.40;1.87;;;;;;;22.25;65.87;100049.72;31297737;28;20458;-69
2022/07/15 23:19:20;;;;;;;;;;;;;;;22.18;69.89;100057.78;31299291;28;20063;-68
2022/07/15 23:34:23;;;;;;;2.60;2.03;;;;;;;22.03;66.66;100047.66;31318562;28;19927;-68
2022/07/15 23:49:24;;;;;;;6.67;2.20;;;;;;;21.84;67.75;100046.59;31310713;28;20056;-73
